Fronteira, Brazil
Current Conditions -  °F | °C
As of 7:00 PM on Wednesday 26 Nov 2014 (Local Time) from SBSR Reporting Station
Few Clouds Few Clouds  
Wind Chill: 81°   Ceiling: Unl
Heat Index: 83°   Visibility: 6mi
Dew Point: 66°   Wind: 8mph
Humidity: 61%   Direction: 270°W
Pressure: 29.83"   Gusts: NA
Location:  20.27°S, 49.2°W
Report Text: SBSR 262100Z 27007KT 9999 FEW045 27/19 Q1010
Loading
Personal Weather Stations






























Interactive Weather Map New forecast layout! Learn more

10-Day Weather Forecast

Advertisements
Track Severe Weather on mobile